Aplicació Alertes

Dades de l'estació automàtica la Tallada d'Empordà

?
?
Resum diari 22:30 TU
Dades diàries de l'estació meteorològica
Temperatura mitjana 7.8 °C
Temperatura màxima 13.9 °C 13:18 TU
Temperatura mínima -0.5 °C 6:39 TU
Humitat relativa mitjana 49%
Precipitació acumulada 0.0 mm
Ratxa màxima del vent (2 m) 45.0 km/h - 7º 0:25 TU
Irradiació solar global 7.2 MJ/m2

El tram horari està expressat en Temps Universal (TU). Cal sumar una hora en horari d'hivern i dues en horari d'estiu per passar a l'hora oficial.

la Tallada d'Empordà

Metadades estació meteorol´gica
Municipi La Tallada d'Empordà
Comarca Baix Empordà
Altitud 15 m
Data alta 01.05.1989
Estat actual Operativa
Dades de període
Període
TU
TM
°C
TX
°C
TN
°C
HRM
%
PPT
mm
VVM (2 m)
km/h
DVM (2 m)
graus
VVX (2 m)
km/h
RS
W/m2
00:00 - 00:30 7.0 7.2 6.8 54 0.0 21.2 1 45.0 0
00:30 - 01:00 6.8 6.8 6.5 58 0.0 20.9 360 40.0 0
01:00 - 01:30 6.8 6.9 6.6 56 0.0 18.0 2 38.2 0
01:30 - 02:00 7.0 7.1 6.8 52 0.0 19.8 6 40.0 0
02:00 - 02:30 7.0 7.2 6.8 50 0.0 18.0 6 36.4 0
02:30 - 03:00 6.9 7.2 6.8 49 0.0 18.0 7 36.7 0
03:00 - 03:30 6.8 7.0 6.6 49 0.0 20.2 9 37.4 0
03:30 - 04:00 6.6 6.9 6.2 50 0.0 14.8 10 30.6 0
04:00 - 04:30 5.9 6.4 5.3 51 0.0 6.8 1 20.9 0
04:30 - 05:00 4.2 5.2 3.3 56 0.0 0.7 277 8.3 0
05:00 - 05:30 2.3 3.5 1.5 64 0.0 3.2 276 14.8 0
05:30 - 06:00 1.2 1.8 0.9 67 0.0 4.7 292 11.2 0
06:00 - 06:30 0.8 1.2 0.3 68 0.0 2.2 307 8.6 0
06:30 - 07:00 0.3 1.0 -0.5 69 0.0 2.5 266 6.5 0
07:00 - 07:30 3.7 6.5 -0.3 56 0.0 6.5 341 20.9 9
07:30 - 08:00 7.8 8.6 6.7 38 0.0 9.0 340 26.6 57
08:00 - 08:30 8.0 8.4 7.3 39 0.0 8.6 351 28.4 127
08:30 - 09:00 3.1 5.9 2.3 58 0.0 6.1 265 12.6 194
09:00 - 09:30 3.9 4.9 2.9 56 0.0 4.7 286 13.3 261
09:30 - 10:00 6.4 7.6 5.0 51 0.0 2.5 214 6.8 321
10:00 - 10:30 8.6 9.3 7.8 46 0.0 1.4 294 5.4 369
10:30 - 11:00 10.5 11.0 9.5 33 0.0 5.0 292 23.0 311
11:00 - 11:30 11.2 11.4 11.0 31 0.0 5.8 311 22.0 218
11:30 - 12:00 11.5 11.6 11.3 30 0.0 4.7 217 18.0 200
12:00 - 12:30 12.7 13.3 11.6 29 0.0 5.0 244 18.0 493
12:30 - 13:00 13.3 13.6 13.1 28 0.0 5.4 248 12.2 530
13:00 - 13:30 13.6 13.9 13.1 29 0.0 6.1 303 21.6 388
13:30 - 14:00 12.7 13.1 12.5 35 0.0 6.8 322 22.7 118
14:00 - 14:30 12.4 13.0 12.0 37 0.0 9.7 346 29.2 92
14:30 - 15:00 12.1 12.3 11.9 40 0.0 14.0 1 32.4 153
15:00 - 15:30 12.0 12.2 11.7 40 0.0 19.4 9 36.7 121
15:30 - 16:00 11.6 11.9 11.3 42 0.0 12.6 3 29.9 47
16:00 - 16:30 11.1 11.3 10.9 44 0.0 8.3 355 23.8 15
16:30 - 17:00 10.7 10.9 10.5 46 0.0 5.8 336 17.3 0
17:00 - 17:30 10.5 10.6 10.4 46 0.0 4.0 304 16.9 0
17:30 - 18:00 10.3 10.5 9.8 47 0.0 2.5 285 10.4 0
18:00 - 18:30 10.0 10.2 9.7 48 0.0 5.0 320 16.6 0
18:30 - 19:00 10.0 10.4 9.7 48 0.0 2.9 331 13.0 0
19:00 - 19:30 9.9 10.3 9.0 49 0.0 5.8 6 19.4 0
19:30 - 20:00 10.1 10.6 9.5 48 0.0 8.3 16 25.6 0
20:00 - 20:30 9.9 10.5 9.3 50 0.0 11.5 0 25.9 0
20:30 - 21:00 7.2 9.1 6.3 56 0.0 3.6 220 10.8 0
21:00 - 21:30 5.4 6.2 4.8 61 0.0 2.9 235 8.3 0
21:30 - 22:00 4.3 4.8 3.4 65 0.0 5.4 220 14.8 0
22:00 - 22:30 3.5 4.2 2.9 69 0.0 2.5 233 8.6 0
22:30 - 23:00 2.7 3.2 2.3 73 0.0 2.9 253 10.4 0
23:00 - 23:30 (s/d) (s/d) (s/d) (s/d) (s/d) (s/d) (s/d) (s/d) (s/d)

Les dades en taronja només han passat un control de qualitat automàtic. Resta pendent la seva validació definitiva.